sensor_id;sensor_type;location;lat;lon;timestamp;P1;durP1;ratioP1;P2;durP2;ratioP2
7933;SDS011;4012;48.896;9.192;2022-10-16T00:01:22;1.40;;;1.30;;
7933;SDS011;4012;48.896;9.192;2022-10-16T00:03:49;1.40;;;1.30;;
7933;SDS011;4012;48.896;9.192;2022-10-16T00:06:16;1.53;;;1.30;;
7933;SDS011;4012;48.896;9.192;2022-10-16T00:08:43;2.07;;;1.43;;
7933;SDS011;4012;48.896;9.192;2022-10-16T00:11:19;1.33;;;1.17;;
7933;SDS011;4012;48.896;9.192;2022-10-16T00:13:48;1.80;;;1.53;;
7933;SDS011;4012;48.896;9.192;2022-10-16T00:16:16;1.30;;;1.20;;
7933;SDS011;4012;48.896;9.192;2022-10-16T00:18:42;2.37;;;0.97;;
7933;SDS011;4012;48.896;9.192;2022-10-16T00:21:18;1.30;;;1.20;;
7933;SDS011;4012;48.896;9.192;2022-10-16T00:23:46;2.17;;;1.40;;
7933;SDS011;4012;48.896;9.192;2022-10-16T00:26:15;1.17;;;1.03;;
7933;SDS011;4012;48.896;9.192;2022-10-16T00:28:42;1.63;;;1.37;;
7933;SDS011;4012;48.896;9.192;2022-10-16T00:31:11;1.20;;;1.10;;
7933;SDS011;4012;48.896;9.192;2022-10-16T00:33:38;1.90;;;1.60;;
7933;SDS011;4012;48.896;9.192;2022-10-16T00:36:05;4.07;;;1.57;;
7933;SDS011;4012;48.896;9.192;2022-10-16T00:38:32;1.90;;;1.33;;
7933;SDS011;4012;48.896;9.192;2022-10-16T00:40:58;1.67;;;1.40;;
7933;SDS011;4012;48.896;9.192;2022-10-16T00:43:38;2.90;;;1.40;;
7933;SDS011;4012;48.896;9.192;2022-10-16T00:46:07;2.63;;;1.33;;
7933;SDS011;4012;48.896;9.192;2022-10-16T00:49:03;1.27;;;1.17;;
7933;SDS011;4012;48.896;9.192;2022-10-16T00:51:39;1.33;;;1.07;;
7933;SDS011;4012;48.896;9.192;2022-10-16T00:54:10;1.50;;;1.40;;
7933;SDS011;4012;48.896;9.192;2022-10-16T00:56:39;1.60;;;1.47;;
7933;SDS011;4012;48.896;9.192;2022-10-16T00:59:07;1.60;;;1.30;;
7933;SDS011;4012;48.896;9.192;2022-10-16T01:01:40;1.83;;;1.37;;
7933;SDS011;4012;48.896;9.192;2022-10-16T01:04:05;1.40;;;1.30;;
7933;SDS011;4012;48.896;9.192;2022-10-16T01:06:34;2.00;;;1.33;;
7933;SDS011;4012;48.896;9.192;2022-10-16T01:12:01;1.37;;;1.27;;
7933;SDS011;4012;48.896;9.192;2022-10-16T01:14:39;1.70;;;1.50;;
7933;SDS011;4012;48.896;9.192;2022-10-16T01:17:14;1.77;;;1.17;;
7933;SDS011;4012;48.896;9.192;2022-10-16T01:22:18;1.53;;;1.30;;
7933;SDS011;4012;48.896;9.192;2022-10-16T01:24:46;2.23;;;1.40;;
7933;SDS011;4012;48.896;9.192;2022-10-16T01:27:15;2.13;;;1.40;;
7933;SDS011;4012;48.896;9.192;2022-10-16T01:34:48;1.53;;;1.23;;
7933;SDS011;4012;48.896;9.192;2022-10-16T01:37:32;1.50;;;1.40;;
7933;SDS011;4012;48.896;9.192;2022-10-16T01:40:09;2.60;;;1.63;;
7933;SDS011;4012;48.896;9.192;2022-10-16T01:42:39;2.47;;;1.30;;
7933;SDS011;4012;48.896;9.192;2022-10-16T01:45:14;2.10;;;1.43;;
7933;SDS011;4012;48.896;9.192;2022-10-16T01:47:43;1.37;;;1.27;;
7933;SDS011;4012;48.896;9.192;2022-10-16T01:50:10;1.50;;;1.40;;
7933;SDS011;4012;48.896;9.192;2022-10-16T01:52:40;1.67;;;1.37;;
7933;SDS011;4012;48.896;9.192;2022-10-16T01:55:09;1.50;;;1.40;;
7933;SDS011;4012;48.896;9.192;2022-10-16T01:57:39;2.73;;;1.67;;
7933;SDS011;4012;48.896;9.192;2022-10-16T02:00:10;1.10;;;1.07;;
7933;SDS011;4012;48.896;9.192;2022-10-16T02:02:39;0.97;;;0.97;;
7933;SDS011;4012;48.896;9.192;2022-10-16T02:05:16;1.47;;;1.37;;
7933;SDS011;4012;48.896;9.192;2022-10-16T02:07:43;1.30;;;1.20;;
7933;SDS011;4012;48.896;9.192;2022-10-16T02:10:09;2.67;;;1.53;;
7933;SDS011;4012;48.896;9.192;2022-10-16T02:12:36;1.27;;;1.17;;
7933;SDS011;4012;48.896;9.192;2022-10-16T02:15:05;1.60;;;1.50;;
7933;SDS011;4012;48.896;9.192;2022-10-16T02:17:31;2.57;;;1.47;;
7933;SDS011;4012;48.896;9.192;2022-10-16T02:19:57;1.50;;;1.40;;
7933;SDS011;4012;48.896;9.192;2022-10-16T02:22:27;1.63;;;1.30;;
7933;SDS011;4012;48.896;9.192;2022-10-16T02:28:01;1.27;;;1.17;;
7933;SDS011;4012;48.896;9.192;2022-10-16T02:30:50;1.70;;;1.27;;
7933;SDS011;4012;48.896;9.192;2022-10-16T02:33:16;2.83;;;1.40;;
7933;SDS011;4012;48.896;9.192;2022-10-16T02:35:44;1.13;;;1.00;;
7933;SDS011;4012;48.896;9.192;2022-10-16T02:38:15;1.40;;;1.30;;
7933;SDS011;4012;48.896;9.192;2022-10-16T02:40:42;1.90;;;1.57;;
7933;SDS011;4012;48.896;9.192;2022-10-16T02:43:08;1.70;;;1.40;;
7933;SDS011;4012;48.896;9.192;2022-10-16T02:45:34;1.70;;;1.30;;
7933;SDS011;4012;48.896;9.192;2022-10-16T02:48:00;2.97;;;1.20;;
7933;SDS011;4012;48.896;9.192;2022-10-16T02:50:25;3.03;;;1.53;;
7933;SDS011;4012;48.896;9.192;2022-10-16T02:52:51;1.77;;;1.33;;
7933;SDS011;4012;48.896;9.192;2022-10-16T02:55:17;1.37;;;1.27;;
7933;SDS011;4012;48.896;9.192;2022-10-16T02:57:43;2.27;;;1.63;;
7933;SDS011;4012;48.896;9.192;2022-10-16T03:00:09;1.53;;;1.20;;
7933;SDS011;4012;48.896;9.192;2022-10-16T03:02:38;1.77;;;1.20;;
7933;SDS011;4012;48.896;9.192;2022-10-16T03:05:04;1.50;;;1.40;;
7933;SDS011;4012;48.896;9.192;2022-10-16T03:07:30;3.03;;;1.20;;
7933;SDS011;4012;48.896;9.192;2022-10-16T03:09:55;5.27;;;1.43;;
7933;SDS011;4012;48.896;9.192;2022-10-16T03:12:21;1.63;;;1.53;;
7933;SDS011;4012;48.896;9.192;2022-10-16T03:14:47;2.30;;;1.47;;
7933;SDS011;4012;48.896;9.192;2022-10-16T03:17:13;3.40;;;1.40;;
7933;SDS011;4012;48.896;9.192;2022-10-16T03:19:38;1.67;;;1.40;;
7933;SDS011;4012;48.896;9.192;2022-10-16T03:22:04;1.43;;;1.33;;
7933;SDS011;4012;48.896;9.192;2022-10-16T03:24:30;2.20;;;1.57;;
7933;SDS011;4012;48.896;9.192;2022-10-16T03:26:55;1.60;;;1.50;;
7933;SDS011;4012;48.896;9.192;2022-10-16T03:29:21;1.30;;;1.20;;
7933;SDS011;4012;48.896;9.192;2022-10-16T03:31:46;1.93;;;1.70;;
7933;SDS011;4012;48.896;9.192;2022-10-16T03:34:14;1.50;;;1.40;;
7933;SDS011;4012;48.896;9.192;2022-10-16T03:36:40;1.30;;;1.20;;
7933;SDS011;4012;48.896;9.192;2022-10-16T03:39:05;1.50;;;1.30;;
7933;SDS011;4012;48.896;9.192;2022-10-16T03:41:31;1.70;;;1.47;;
7933;SDS011;4012;48.896;9.192;2022-10-16T03:43:56;1.97;;;1.17;;
7933;SDS011;4012;48.896;9.192;2022-10-16T03:46:22;1.93;;;1.23;;
7933;SDS011;4012;48.896;9.192;2022-10-16T03:48:47;2.57;;;1.43;;
7933;SDS011;4012;48.896;9.192;2022-10-16T03:51:13;1.83;;;1.20;;
7933;SDS011;4012;48.896;9.192;2022-10-16T03:53:38;1.43;;;1.30;;
7933;SDS011;4012;48.896;9.192;2022-10-16T03:56:04;1.60;;;1.50;;
7933;SDS011;4012;48.896;9.192;2022-10-16T03:58:30;1.23;;;1.13;;
7933;SDS011;4012;48.896;9.192;2022-10-16T04:00:56;1.20;;;1.10;;
7933;SDS011;4012;48.896;9.192;2022-10-16T04:03:21;3.40;;;1.40;;
7933;SDS011;4012;48.896;9.192;2022-10-16T04:05:48;2.73;;;1.47;;
7933;SDS011;4012;48.896;9.192;2022-10-16T04:08:13;1.83;;;1.30;;
7933;SDS011;4012;48.896;9.192;2022-10-16T04:10:39;2.83;;;1.40;;
7933;SDS011;4012;48.896;9.192;2022-10-16T04:13:06;2.53;;;1.40;;
7933;SDS011;4012;48.896;9.192;2022-10-16T04:15:32;3.73;;;1.20;;
7933;SDS011;4012;48.896;9.192;2022-10-16T04:17:58;3.90;;;1.40;;
7933;SDS011;4012;48.896;9.192;2022-10-16T04:20:23;1.77;;;1.20;;
7933;SDS011;4012;48.896;9.192;2022-10-16T04:22:49;1.60;;;1.37;;
7933;SDS011;4012;48.896;9.192;2022-10-16T04:25:14;1.53;;;1.20;;
7933;SDS011;4012;48.896;9.192;2022-10-16T04:27:40;1.67;;;1.30;;
7933;SDS011;4012;48.896;9.192;2022-10-16T04:30:05;1.43;;;1.33;;
7933;SDS011;4012;48.896;9.192;2022-10-16T04:32:31;2.20;;;1.17;;
7933;SDS011;4012;48.896;9.192;2022-10-16T04:34:57;3.27;;;1.30;;
7933;SDS011;4012;48.896;9.192;2022-10-16T04:37:23;1.30;;;1.20;;
7933;SDS011;4012;48.896;9.192;2022-10-16T04:39:50;1.20;;;1.10;;
7933;SDS011;4012;48.896;9.192;2022-10-16T04:42:15;2.30;;;1.17;;
7933;SDS011;4012;48.896;9.192;2022-10-16T04:44:41;1.30;;;1.20;;
7933;SDS011;4012;48.896;9.192;2022-10-16T04:47:07;2.10;;;1.50;;
7933;SDS011;4012;48.896;9.192;2022-10-16T04:49:32;1.47;;;1.10;;
7933;SDS011;4012;48.896;9.192;2022-10-16T04:51:58;1.97;;;1.30;;
7933;SDS011;4012;48.896;9.192;2022-10-16T04:54:24;1.33;;;1.17;;
7933;SDS011;4012;48.896;9.192;2022-10-16T04:56:49;2.37;;;1.43;;
7933;SDS011;4012;48.896;9.192;2022-10-16T04:59:17;2.80;;;1.30;;
7933;SDS011;4012;48.896;9.192;2022-10-16T05:01:43;2.27;;;1.83;;
7933;SDS011;4012;48.896;9.192;2022-10-16T05:04:09;1.60;;;1.50;;
7933;SDS011;4012;48.896;9.192;2022-10-16T05:06:35;3.53;;;1.40;;
7933;SDS011;4012;48.896;9.192;2022-10-16T05:09:01;1.20;;;1.10;;
7933;SDS011;4012;48.896;9.192;2022-10-16T05:11:27;1.33;;;1.23;;
7933;SDS011;4012;48.896;9.192;2022-10-16T05:13:52;2.60;;;1.40;;
7933;SDS011;4012;48.896;9.192;2022-10-16T05:16:18;2.40;;;1.30;;
7933;SDS011;4012;48.896;9.192;2022-10-16T05:18:43;1.57;;;1.47;;
7933;SDS011;4012;48.896;9.192;2022-10-16T05:21:09;4.27;;;1.93;;
7933;SDS011;4012;48.896;9.192;2022-10-16T05:23:35;1.53;;;1.43;;
7933;SDS011;4012;48.896;9.192;2022-10-16T05:26:00;1.60;;;1.50;;
7933;SDS011;4012;48.896;9.192;2022-10-16T05:28:26;1.93;;;1.50;;
7933;SDS011;4012;48.896;9.192;2022-10-16T05:30:53;3.27;;;1.60;;
7933;SDS011;4012;48.896;9.192;2022-10-16T05:33:22;1.97;;;1.33;;
7933;SDS011;4012;48.896;9.192;2022-10-16T05:35:50;2.07;;;1.43;;
7933;SDS011;4012;48.896;9.192;2022-10-16T05:38:16;2.20;;;1.73;;
7933;SDS011;4012;48.896;9.192;2022-10-16T05:40:42;1.77;;;1.50;;
7933;SDS011;4012;48.896;9.192;2022-10-16T05:43:08;3.27;;;1.80;;
7933;SDS011;4012;48.896;9.192;2022-10-16T05:45:34;1.60;;;1.50;;
7933;SDS011;4012;48.896;9.192;2022-10-16T05:47:59;3.70;;;1.30;;
7933;SDS011;4012;48.896;9.192;2022-10-16T05:50:26;1.90;;;1.67;;
7933;SDS011;4012;48.896;9.192;2022-10-16T05:52:51;1.70;;;1.60;;
7933;SDS011;4012;48.896;9.192;2022-10-16T05:55:17;3.23;;;1.50;;
7933;SDS011;4012;48.896;9.192;2022-10-16T05:57:43;1.60;;;1.50;;
7933;SDS011;4012;48.896;9.192;2022-10-16T06:00:08;2.10;;;1.57;;
7933;SDS011;4012;48.896;9.192;2022-10-16T06:02:35;1.43;;;1.30;;
7933;SDS011;4012;48.896;9.192;2022-10-16T06:05:00;3.93;;;1.50;;
7933;SDS011;4012;48.896;9.192;2022-10-16T06:07:26;2.53;;;1.80;;
7933;SDS011;4012;48.896;9.192;2022-10-16T06:09:52;2.00;;;1.63;;
7933;SDS011;4012;48.896;9.192;2022-10-16T06:12:18;1.70;;;1.60;;
7933;SDS011;4012;48.896;9.192;2022-10-16T06:14:44;2.37;;;1.63;;
7933;SDS011;4012;48.896;9.192;2022-10-16T06:17:12;2.10;;;1.87;;
7933;SDS011;4012;48.896;9.192;2022-10-16T06:19:38;2.10;;;1.67;;
7933;SDS011;4012;48.896;9.192;2022-10-16T06:22:04;2.40;;;1.70;;
7933;SDS011;4012;48.896;9.192;2022-10-16T06:24:29;1.40;;;1.30;;
7933;SDS011;4012;48.896;9.192;2022-10-16T06:26:55;1.77;;;1.40;;
7933;SDS011;4012;48.896;9.192;2022-10-16T06:29:21;2.60;;;1.20;;
7933;SDS011;4012;48.896;9.192;2022-10-16T06:31:46;2.97;;;1.57;;
7933;SDS011;4012;48.896;9.192;2022-10-16T06:34:12;1.47;;;1.30;;
7933;SDS011;4012;48.896;9.192;2022-10-16T06:36:38;2.07;;;1.30;;
7933;SDS011;4012;48.896;9.192;2022-10-16T06:39:04;1.00;;;1.00;;
7933;SDS011;4012;48.896;9.192;2022-10-16T06:41:32;0.90;;;0.90;;
7933;SDS011;4012;48.896;9.192;2022-10-16T06:43:58;1.17;;;1.07;;
7933;SDS011;4012;48.896;9.192;2022-10-16T06:46:24;1.17;;;1.07;;
7933;SDS011;4012;48.896;9.192;2022-10-16T06:48:50;0.97;;;0.97;;
7933;SDS011;4012;48.896;9.192;2022-10-16T06:51:18;1.43;;;1.30;;
7933;SDS011;4012;48.896;9.192;2022-10-16T06:53:49;2.10;;;1.10;;
7933;SDS011;4012;48.896;9.192;2022-10-16T06:56:22;2.13;;;1.20;;
7933;SDS011;4012;48.896;9.192;2022-10-16T06:58:50;2.57;;;1.40;;
7933;SDS011;4012;48.896;9.192;2022-10-16T07:01:17;1.23;;;1.13;;
7933;SDS011;4012;48.896;9.192;2022-10-16T07:03:44;1.23;;;1.10;;
7933;SDS011;4012;48.896;9.192;2022-10-16T07:06:12;1.03;;;1.00;;
7933;SDS011;4012;48.896;9.192;2022-10-16T07:08:40;1.80;;;1.23;;
7933;SDS011;4012;48.896;9.192;2022-10-16T07:11:08;1.33;;;1.20;;
7933;SDS011;4012;48.896;9.192;2022-10-16T07:13:35;2.90;;;1.27;;
7933;SDS011;4012;48.896;9.192;2022-10-16T07:16:09;4.27;;;1.10;;
7933;SDS011;4012;48.896;9.192;2022-10-16T07:18:39;2.87;;;1.67;;
7933;SDS011;4012;48.896;9.192;2022-10-16T07:21:07;1.40;;;1.30;;
7933;SDS011;4012;48.896;9.192;2022-10-16T07:23:38;2.37;;;1.60;;
7933;SDS011;4012;48.896;9.192;2022-10-16T07:26:04;1.67;;;1.20;;
7933;SDS011;4012;48.896;9.192;2022-10-16T07:28:30;1.10;;;1.10;;
7933;SDS011;4012;48.896;9.192;2022-10-16T07:31:00;5.43;;;1.70;;
7933;SDS011;4012;48.896;9.192;2022-10-16T07:33:31;4.03;;;2.53;;
7933;SDS011;4012;48.896;9.192;2022-10-16T07:35:57;2.80;;;1.80;;
7933;SDS011;4012;48.896;9.192;2022-10-16T07:38:23;1.57;;;1.20;;
7933;SDS011;4012;48.896;9.192;2022-10-16T07:40:55;1.20;;;1.10;;
7933;SDS011;4012;48.896;9.192;2022-10-16T07:43:25;1.47;;;1.10;;
7933;SDS011;4012;48.896;9.192;2022-10-16T07:45:51;1.40;;;1.30;;
7933;SDS011;4012;48.896;9.192;2022-10-16T07:48:18;1.23;;;1.10;;
7933;SDS011;4012;48.896;9.192;2022-10-16T07:50:44;2.90;;;1.23;;
7933;SDS011;4012;48.896;9.192;2022-10-16T07:53:10;1.10;;;1.07;;
7933;SDS011;4012;48.896;9.192;2022-10-16T07:55:36;1.80;;;1.57;;
7933;SDS011;4012;48.896;9.192;2022-10-16T07:58:02;1.97;;;1.20;;
7933;SDS011;4012;48.896;9.192;2022-10-16T08:00:28;1.83;;;1.30;;
7933;SDS011;4012;48.896;9.192;2022-10-16T08:02:53;1.90;;;1.40;;
7933;SDS011;4012;48.896;9.192;2022-10-16T08:05:19;2.97;;;1.20;;
7933;SDS011;4012;48.896;9.192;2022-10-16T08:07:48;1.23;;;1.10;;
7933;SDS011;4012;48.896;9.192;2022-10-16T08:10:15;2.07;;;1.03;;
7933;SDS011;4012;48.896;9.192;2022-10-16T08:12:42;2.70;;;1.20;;
7933;SDS011;4012;48.896;9.192;2022-10-16T08:15:08;2.70;;;1.10;;
7933;SDS011;4012;48.896;9.192;2022-10-16T08:17:34;3.57;;;1.13;;
7933;SDS011;4012;48.896;9.192;2022-10-16T08:20:00;4.87;;;1.30;;
7933;SDS011;4012;48.896;9.192;2022-10-16T08:22:26;1.53;;;1.10;;
7933;SDS011;4012;48.896;9.192;2022-10-16T08:24:52;1.37;;;1.10;;
7933;SDS011;4012;48.896;9.192;2022-10-16T08:27:17;1.10;;;1.00;;
7933;SDS011;4012;48.896;9.192;2022-10-16T08:29:43;1.37;;;1.20;;
7933;SDS011;4012;48.896;9.192;2022-10-16T08:32:09;1.30;;;1.20;;
7933;SDS011;4012;48.896;9.192;2022-10-16T08:34:34;1.30;;;1.10;;
7933;SDS011;4012;48.896;9.192;2022-10-16T08:37:00;4.30;;;1.20;;
7933;SDS011;4012;48.896;9.192;2022-10-16T08:39:25;1.37;;;1.10;;
7933;SDS011;4012;48.896;9.192;2022-10-16T08:42:01;1.20;;;1.10;;
7933;SDS011;4012;48.896;9.192;2022-10-16T08:44:44;1.70;;;1.30;;
7933;SDS011;4012;48.896;9.192;2022-10-16T08:50:30;1.57;;;1.30;;
7933;SDS011;4012;48.896;9.192;2022-10-16T08:52:58;1.30;;;1.20;;
7933;SDS011;4012;48.896;9.192;2022-10-16T08:57:55;1.40;;;1.30;;
7933;SDS011;4012;48.896;9.192;2022-10-16T09:00:21;2.63;;;1.10;;
7933;SDS011;4012;48.896;9.192;2022-10-16T09:02:52;1.20;;;1.10;;
7933;SDS011;4012;48.896;9.192;2022-10-16T09:11:23;2.53;;;1.30;;
7933;SDS011;4012;48.896;9.192;2022-10-16T09:14:02;1.43;;;1.23;;
7933;SDS011;4012;48.896;9.192;2022-10-16T09:16:46;1.40;;;1.30;;
7933;SDS011;4012;48.896;9.192;2022-10-16T09:19:34;1.97;;;1.20;;
7933;SDS011;4012;48.896;9.192;2022-10-16T09:22:10;2.07;;;1.30;;
7933;SDS011;4012;48.896;9.192;2022-10-16T09:24:39;1.40;;;1.30;;
7933;SDS011;4012;48.896;9.192;2022-10-16T09:27:07;1.93;;;1.23;;
7933;SDS011;4012;48.896;9.192;2022-10-16T09:29:37;1.77;;;1.27;;
7933;SDS011;4012;48.896;9.192;2022-10-16T09:32:08;1.20;;;1.10;;
7933;SDS011;4012;48.896;9.192;2022-10-16T09:34:52;1.20;;;1.10;;
7933;SDS011;4012;48.896;9.192;2022-10-16T09:37:22;1.20;;;1.10;;
7933;SDS011;4012;48.896;9.192;2022-10-16T09:39:53;1.30;;;1.10;;
7933;SDS011;4012;48.896;9.192;2022-10-16T09:42:20;2.67;;;1.20;;
7933;SDS011;4012;48.896;9.192;2022-10-16T09:44:56;1.17;;;1.07;;
7933;SDS011;4012;48.896;9.192;2022-10-16T09:47:28;1.43;;;1.33;;
7933;SDS011;4012;48.896;9.192;2022-10-16T09:49:57;1.47;;;1.10;;
7933;SDS011;4012;48.896;9.192;2022-10-16T09:52:24;1.60;;;1.03;;
7933;SDS011;4012;48.896;9.192;2022-10-16T09:54:51;1.90;;;1.13;;
7933;SDS011;4012;48.896;9.192;2022-10-16T09:57:18;0.90;;;0.90;;
7933;SDS011;4012;48.896;9.192;2022-10-16T09:59:45;1.20;;;1.10;;
7933;SDS011;4012;48.896;9.192;2022-10-16T10:02:35;1.23;;;0.93;;
7933;SDS011;4012;48.896;9.192;2022-10-16T10:05:04;1.87;;;1.20;;
7933;SDS011;4012;48.896;9.192;2022-10-16T10:07:42;1.67;;;1.20;;
7933;SDS011;4012;48.896;9.192;2022-10-16T10:10:18;0.97;;;0.97;;
7933;SDS011;4012;48.896;9.192;2022-10-16T10:12:46;1.40;;;1.00;;
7933;SDS011;4012;48.896;9.192;2022-10-16T10:15:12;1.90;;;1.33;;
7933;SDS011;4012;48.896;9.192;2022-10-16T10:17:50;1.30;;;1.10;;
7933;SDS011;4012;48.896;9.192;2022-10-16T10:20:28;1.53;;;1.23;;
7933;SDS011;4012;48.896;9.192;2022-10-16T10:22:56;1.53;;;1.40;;
7933;SDS011;4012;48.896;9.192;2022-10-16T10:30:48;1.17;;;1.10;;
7933;SDS011;4012;48.896;9.192;2022-10-16T10:33:28;1.03;;;0.93;;
7933;SDS011;4012;48.896;9.192;2022-10-16T10:36:02;1.10;;;1.00;;
7933;SDS011;4012;48.896;9.192;2022-10-16T10:46:51;3.27;;;1.20;;
7933;SDS011;4012;48.896;9.192;2022-10-16T10:55:08;2.10;;;1.60;;
7933;SDS011;4012;48.896;9.192;2022-10-16T10:57:50;1.73;;;1.43;;
7933;SDS011;4012;48.896;9.192;2022-10-16T11:00:23;1.87;;;1.23;;
7933;SDS011;4012;48.896;9.192;2022-10-16T11:05:50;1.17;;;1.00;;
7933;SDS011;4012;48.896;9.192;2022-10-16T11:11:23;2.00;;;1.30;;
7933;SDS011;4012;48.896;9.192;2022-10-16T11:14:06;1.20;;;1.10;;
7933;SDS011;4012;48.896;9.192;2022-10-16T11:16:43;1.43;;;1.33;;
7933;SDS011;4012;48.896;9.192;2022-10-16T11:30:27;1.10;;;1.00;;
7933;SDS011;4012;48.896;9.192;2022-10-16T11:40:56;1.50;;;1.10;;
7933;SDS011;4012;48.896;9.192;2022-10-16T11:43:38;1.00;;;1.00;;
7933;SDS011;4012;48.896;9.192;2022-10-16T11:46:09;1.30;;;1.20;;
7933;SDS011;4012;48.896;9.192;2022-10-16T11:48:41;1.37;;;1.03;;
7933;SDS011;4012;48.896;9.192;2022-10-16T11:53:59;1.37;;;1.27;;
7933;SDS011;4012;48.896;9.192;2022-10-16T11:56:38;1.20;;;1.10;;
7933;SDS011;4012;48.896;9.192;2022-10-16T12:02:33;4.80;;;1.00;;
7933;SDS011;4012;48.896;9.192;2022-10-16T12:07:38;2.00;;;1.50;;
7933;SDS011;4012;48.896;9.192;2022-10-16T12:10:25;1.40;;;1.30;;
7933;SDS011;4012;48.896;9.192;2022-10-16T12:12:52;1.50;;;1.40;;
7933;SDS011;4012;48.896;9.192;2022-10-16T12:15:20;2.87;;;1.20;;
7933;SDS011;4012;48.896;9.192;2022-10-16T12:17:48;1.27;;;0.90;;
7933;SDS011;4012;48.896;9.192;2022-10-16T12:22:50;2.10;;;1.80;;
7933;SDS011;4012;48.896;9.192;2022-10-16T12:25:32;1.63;;;1.30;;
7933;SDS011;4012;48.896;9.192;2022-10-16T12:28:06;1.90;;;1.37;;
7933;SDS011;4012;48.896;9.192;2022-10-16T12:30:56;1.27;;;1.10;;
7933;SDS011;4012;48.896;9.192;2022-10-16T12:33:29;2.37;;;1.63;;
7933;SDS011;4012;48.896;9.192;2022-10-16T12:36:00;2.77;;;2.53;;
7933;SDS011;4012;48.896;9.192;2022-10-16T12:38:38;1.37;;;1.10;;
7933;SDS011;4012;48.896;9.192;2022-10-16T12:41:07;1.53;;;1.10;;
7933;SDS011;4012;48.896;9.192;2022-10-16T12:48:36;2.33;;;1.90;;
7933;SDS011;4012;48.896;9.192;2022-10-16T12:51:10;2.03;;;1.30;;
7933;SDS011;4012;48.896;9.192;2022-10-16T12:53:35;2.10;;;1.30;;
7933;SDS011;4012;48.896;9.192;2022-10-16T12:56:16;1.20;;;1.10;;
7933;SDS011;4012;48.896;9.192;2022-10-16T13:12:30;1.47;;;1.30;;
7933;SDS011;4012;48.896;9.192;2022-10-16T13:15:16;1.37;;;1.20;;
7933;SDS011;4012;48.896;9.192;2022-10-16T13:23:26;1.47;;;1.33;;
7933;SDS011;4012;48.896;9.192;2022-10-16T13:28:35;1.20;;;1.07;;
7933;SDS011;4012;48.896;9.192;2022-10-16T13:31:04;1.47;;;1.37;;
7933;SDS011;4012;48.896;9.192;2022-10-16T13:33:36;1.20;;;1.10;;
7933;SDS011;4012;48.896;9.192;2022-10-16T13:36:04;1.20;;;1.10;;
7933;SDS011;4012;48.896;9.192;2022-10-16T13:38:34;1.47;;;1.17;;
7933;SDS011;4012;48.896;9.192;2022-10-16T13:41:02;1.20;;;1.10;;
7933;SDS011;4012;48.896;9.192;2022-10-16T13:43:39;4.10;;;1.30;;
7933;SDS011;4012;48.896;9.192;2022-10-16T13:46:16;1.30;;;1.10;;
7933;SDS011;4012;48.896;9.192;2022-10-16T13:48:56;1.23;;;1.13;;
7933;SDS011;4012;48.896;9.192;2022-10-16T13:51:26;1.80;;;1.40;;
7933;SDS011;4012;48.896;9.192;2022-10-16T13:53:52;1.97;;;1.50;;
7933;SDS011;4012;48.896;9.192;2022-10-16T13:56:28;1.50;;;1.10;;
7933;SDS011;4012;48.896;9.192;2022-10-16T13:59:04;1.60;;;1.27;;
7933;SDS011;4012;48.896;9.192;2022-10-16T14:01:35;1.27;;;1.17;;
7933;SDS011;4012;48.896;9.192;2022-10-16T14:04:08;1.10;;;1.00;;
7933;SDS011;4012;48.896;9.192;2022-10-16T14:06:36;1.50;;;1.40;;
7933;SDS011;4012;48.896;9.192;2022-10-16T14:09:06;2.07;;;1.73;;
7933;SDS011;4012;48.896;9.192;2022-10-16T14:11:45;1.20;;;1.13;;
7933;SDS011;4012;48.896;9.192;2022-10-16T14:14:16;1.37;;;1.20;;
7933;SDS011;4012;48.896;9.192;2022-10-16T14:16:46;1.53;;;1.43;;
7933;SDS011;4012;48.896;9.192;2022-10-16T14:19:17;1.43;;;1.30;;
7933;SDS011;4012;48.896;9.192;2022-10-16T14:21:47;1.57;;;1.43;;
7933;SDS011;4012;48.896;9.192;2022-10-16T14:24:13;1.43;;;1.33;;
7933;SDS011;4012;48.896;9.192;2022-10-16T14:26:47;1.40;;;1.30;;
7933;SDS011;4012;48.896;9.192;2022-10-16T14:29:17;1.57;;;1.47;;
7933;SDS011;4012;48.896;9.192;2022-10-16T14:31:57;1.17;;;1.07;;
7933;SDS011;4012;48.896;9.192;2022-10-16T14:36:55;1.67;;;1.33;;
7933;SDS011;4012;48.896;9.192;2022-10-16T14:39:22;2.90;;;1.30;;
7933;SDS011;4012;48.896;9.192;2022-10-16T14:41:50;1.30;;;1.20;;
7933;SDS011;4012;48.896;9.192;2022-10-16T14:44:17;1.50;;;1.40;;
7933;SDS011;4012;48.896;9.192;2022-10-16T14:46:44;1.77;;;1.57;;
7933;SDS011;4012;48.896;9.192;2022-10-16T14:51:36;1.80;;;1.53;;
7933;SDS011;4012;48.896;9.192;2022-10-16T14:54:04;1.60;;;1.20;;
7933;SDS011;4012;48.896;9.192;2022-10-16T14:56:31;1.43;;;1.33;;
7933;SDS011;4012;48.896;9.192;2022-10-16T14:59:06;1.00;;;0.97;;
7933;SDS011;4012;48.896;9.192;2022-10-16T15:01:37;2.47;;;1.43;;
7933;SDS011;4012;48.896;9.192;2022-10-16T15:04:03;1.60;;;1.50;;
7933;SDS011;4012;48.896;9.192;2022-10-16T15:06:29;3.33;;;1.67;;
7933;SDS011;4012;48.896;9.192;2022-10-16T15:08:54;2.10;;;1.60;;
7933;SDS011;4012;48.896;9.192;2022-10-16T15:11:20;1.40;;;1.30;;
7933;SDS011;4012;48.896;9.192;2022-10-16T15:13:45;1.87;;;1.43;;
7933;SDS011;4012;48.896;9.192;2022-10-16T15:16:12;1.50;;;1.40;;
7933;SDS011;4012;48.896;9.192;2022-10-16T15:18:40;1.40;;;1.30;;
7933;SDS011;4012;48.896;9.192;2022-10-16T15:21:05;1.40;;;1.30;;
7933;SDS011;4012;48.896;9.192;2022-10-16T15:23:31;2.40;;;1.50;;
7933;SDS011;4012;48.896;9.192;2022-10-16T15:25:57;1.53;;;1.43;;
7933;SDS011;4012;48.896;9.192;2022-10-16T15:28:23;2.97;;;1.47;;
7933;SDS011;4012;48.896;9.192;2022-10-16T15:30:51;2.50;;;1.57;;
7933;SDS011;4012;48.896;9.192;2022-10-16T15:33:19;1.20;;;1.10;;
7933;SDS011;4012;48.896;9.192;2022-10-16T15:35:47;1.30;;;1.20;;
7933;SDS011;4012;48.896;9.192;2022-10-16T15:38:15;2.80;;;1.50;;
7933;SDS011;4012;48.896;9.192;2022-10-16T15:40:42;1.60;;;1.40;;
7933;SDS011;4012;48.896;9.192;2022-10-16T15:43:08;1.73;;;1.60;;
7933;SDS011;4012;48.896;9.192;2022-10-16T15:45:34;3.10;;;2.00;;
7933;SDS011;4012;48.896;9.192;2022-10-16T15:48:00;2.60;;;2.40;;
7933;SDS011;4012;48.896;9.192;2022-10-16T15:50:25;3.67;;;1.60;;
7933;SDS011;4012;48.896;9.192;2022-10-16T15:52:51;4.60;;;1.53;;
7933;SDS011;4012;48.896;9.192;2022-10-16T15:55:17;1.23;;;1.13;;
7933;SDS011;4012;48.896;9.192;2022-10-16T15:57:43;1.50;;;1.40;;
7933;SDS011;4012;48.896;9.192;2022-10-16T16:00:15;2.27;;;1.40;;
7933;SDS011;4012;48.896;9.192;2022-10-16T16:02:42;1.20;;;1.10;;
7933;SDS011;4012;48.896;9.192;2022-10-16T16:05:14;3.77;;;1.63;;
7933;SDS011;4012;48.896;9.192;2022-10-16T16:07:40;3.47;;;1.40;;
7933;SDS011;4012;48.896;9.192;2022-10-16T16:10:06;1.53;;;1.37;;
7933;SDS011;4012;48.896;9.192;2022-10-16T16:12:33;2.00;;;1.80;;
7933;SDS011;4012;48.896;9.192;2022-10-16T16:15:00;3.67;;;2.40;;
7933;SDS011;4012;48.896;9.192;2022-10-16T16:17:25;2.87;;;2.13;;
7933;SDS011;4012;48.896;9.192;2022-10-16T16:19:51;2.60;;;1.90;;
7933;SDS011;4012;48.896;9.192;2022-10-16T16:22:17;3.33;;;2.03;;
7933;SDS011;4012;48.896;9.192;2022-10-16T16:24:42;4.27;;;2.83;;
7933;SDS011;4012;48.896;9.192;2022-10-16T16:27:08;2.47;;;1.77;;
7933;SDS011;4012;48.896;9.192;2022-10-16T16:29:34;3.03;;;2.00;;
7933;SDS011;4012;48.896;9.192;2022-10-16T16:32:00;6.23;;;2.40;;
7933;SDS011;4012;48.896;9.192;2022-10-16T16:34:26;2.17;;;1.80;;
7933;SDS011;4012;48.896;9.192;2022-10-16T16:36:53;4.60;;;2.20;;
7933;SDS011;4012;48.896;9.192;2022-10-16T16:39:19;4.37;;;2.10;;
7933;SDS011;4012;48.896;9.192;2022-10-16T16:41:45;3.87;;;2.70;;
7933;SDS011;4012;48.896;9.192;2022-10-16T16:44:11;2.90;;;2.37;;
7933;SDS011;4012;48.896;9.192;2022-10-16T16:46:38;3.47;;;2.80;;
7933;SDS011;4012;48.896;9.192;2022-10-16T16:49:08;4.13;;;2.27;;
7933;SDS011;4012;48.896;9.192;2022-10-16T16:51:36;4.87;;;2.20;;
7933;SDS011;4012;48.896;9.192;2022-10-16T16:54:03;4.27;;;2.63;;
7933;SDS011;4012;48.896;9.192;2022-10-16T16:56:29;6.37;;;2.97;;
7933;SDS011;4012;48.896;9.192;2022-10-16T16:58:55;8.53;;;5.30;;
7933;SDS011;4012;48.896;9.192;2022-10-16T17:01:22;3.43;;;2.90;;
7933;SDS011;4012;48.896;9.192;2022-10-16T17:03:49;5.47;;;2.90;;
7933;SDS011;4012;48.896;9.192;2022-10-16T17:06:17;3.33;;;2.33;;
7933;SDS011;4012;48.896;9.192;2022-10-16T17:08:44;6.63;;;2.10;;
7933;SDS011;4012;48.896;9.192;2022-10-16T17:11:13;5.90;;;2.33;;
7933;SDS011;4012;48.896;9.192;2022-10-16T17:13:40;5.10;;;3.00;;
7933;SDS011;4012;48.896;9.192;2022-10-16T17:16:06;3.20;;;2.13;;
7933;SDS011;4012;48.896;9.192;2022-10-16T17:18:33;5.53;;;3.30;;